Eagle Point, Vermont
Current Conditions -  °F | °C
As of 9:35 AM on Saturday 22 Nov 2014 (Local Time) from KEFK Reporting Station
Clear Clear  
Wind Chill: 15°   Ceiling: Unl
Heat Index: 24°   Visibility: 10mi
Dew Point: 14°   Wind: 8mph
Humidity: 66%   Direction: 190°S
Pressure: 30.14"   Gusts: NA
Location:  44.9201°N, 72.2004°W
Report Text: KEFK 221435Z AUTO 19007KT 10SM CLR M05/M10 A3014 RMK AO2 T10461100
Loading
Personal Weather Stations






























Interactive Weather Map New forecast layout! Learn more

10-Day Weather Forecast

Advertisements
Track Severe Weather on mobile